Glencoe, Oklahoma
Current Conditions -  °F | °C
As of 4:53 AM on Saturday 25 Oct 2014 (Local Time) from KSWO Reporting Station
Clear Clear  
Wind Chill: 60°   Ceiling: Unl
Heat Index: 60°   Visibility: 9mi
Dew Point: 58°   Wind: 6mph
Humidity: 93%   Direction: 170°S
Pressure: 30.03"   Gusts: NA
Location:  36.23°N, 96.93°W
Report Text: KSWO 250953Z AUTO 17005KT 9SM CLR 16/14 A3003 RMK AO2 SLP158 T01560144
Loading
Personal Weather Stations






























Interactive Weather Map
Tropical Storm Tracking
New forecast layout! Learn more

10-Day Weather Forecast

Advertisements
Track Severe Weather on mobile